sensor_id;sensor_type;location;lat;lon;timestamp;pressure;altitude;pressure_sealevel;temperature;humidity
22743;BME280;11538;48.884;8.696;2023-04-22T00:01:14;98086.25;;;11.21;100.00
22743;BME280;11538;48.884;8.696;2023-04-22T00:03:42;98080.03;;;11.20;100.00
22743;BME280;11538;48.884;8.696;2023-04-22T00:06:12;98088.31;;;11.24;100.00
22743;BME280;11538;48.884;8.696;2023-04-22T00:08:39;98082.44;;;11.22;100.00
22743;BME280;11538;48.884;8.696;2023-04-22T00:11:09;98086.72;;;11.23;100.00
22743;BME280;11538;48.884;8.696;2023-04-22T00:13:36;98082.59;;;11.25;100.00
22743;BME280;11538;48.884;8.696;2023-04-22T00:16:03;98080.81;;;11.21;100.00
22743;BME280;11538;48.884;8.696;2023-04-22T00:18:34;98086.59;;;11.19;100.00
22743;BME280;11538;48.884;8.696;2023-04-22T00:21:03;98082.75;;;11.20;100.00
22743;BME280;11538;48.884;8.696;2023-04-22T00:23:30;98080.34;;;11.19;100.00
22743;BME280;11538;48.884;8.696;2023-04-22T00:25:57;98079.56;;;11.18;100.00
22743;BME280;11538;48.884;8.696;2023-04-22T00:28:24;98090.44;;;11.18;100.00
22743;BME280;11538;48.884;8.696;2023-04-22T00:30:51;98081.16;;;11.19;100.00
22743;BME280;11538;48.884;8.696;2023-04-22T00:33:18;98079.72;;;11.13;100.00
22743;BME280;11538;48.884;8.696;2023-04-22T00:35:48;98074.44;;;11.17;100.00
22743;BME280;11538;48.884;8.696;2023-04-22T00:38:16;98081.47;;;11.18;100.00
22743;BME280;11538;48.884;8.696;2023-04-22T00:40:42;98076.69;;;11.15;100.00
22743;BME280;11538;48.884;8.696;2023-04-22T00:43:10;98078.78;;;11.09;100.00
22743;BME280;11538;48.884;8.696;2023-04-22T00:45:38;98074.47;;;11.08;100.00
22743;BME280;11538;48.884;8.696;2023-04-22T00:48:06;98083.38;;;11.08;100.00
22743;BME280;11538;48.884;8.696;2023-04-22T00:50:36;98078.44;;;11.10;100.00
22743;BME280;11538;48.884;8.696;2023-04-22T00:53:03;98072.72;;;11.12;100.00
22743;BME280;11538;48.884;8.696;2023-04-22T00:55:30;98077.19;;;11.08;100.00
22743;BME280;11538;48.884;8.696;2023-04-22T00:57:59;98072.22;;;11.10;100.00
22743;BME280;11538;48.884;8.696;2023-04-22T01:00:27;98069.34;;;11.06;100.00
22743;BME280;11538;48.884;8.696;2023-04-22T01:02:56;98062.34;;;10.96;100.00
22743;BME280;11538;48.884;8.696;2023-04-22T01:05:24;98070.50;;;10.96;100.00
22743;BME280;11538;48.884;8.696;2023-04-22T01:07:51;98067.78;;;10.96;100.00
22743;BME280;11538;48.884;8.696;2023-04-22T01:10:18;98072.09;;;10.97;100.00
22743;BME280;11538;48.884;8.696;2023-04-22T01:12:46;98063.31;;;11.01;100.00
22743;BME280;11538;48.884;8.696;2023-04-22T01:15:13;98076.22;;;11.04;100.00
22743;BME280;11538;48.884;8.696;2023-04-22T01:17:44;98067.13;;;11.00;100.00
22743;BME280;11538;48.884;8.696;2023-04-22T01:20:11;98071.13;;;10.93;100.00
22743;BME280;11538;48.884;8.696;2023-04-22T01:22:41;98074.63;;;10.94;100.00
22743;BME280;11538;48.884;8.696;2023-04-22T01:25:10;98077.34;;;11.03;100.00
22743;BME280;11538;48.884;8.696;2023-04-22T01:27:38;98064.91;;;11.02;100.00
22743;BME280;11538;48.884;8.696;2023-04-22T01:30:06;98069.84;;;11.00;100.00
22743;BME280;11538;48.884;8.696;2023-04-22T01:32:34;98075.09;;;10.96;100.00
22743;BME280;11538;48.884;8.696;2023-04-22T01:35:02;98072.88;;;10.98;100.00
22743;BME280;11538;48.884;8.696;2023-04-22T01:37:29;98079.88;;;10.99;100.00
22743;BME280;11538;48.884;8.696;2023-04-22T01:39:58;98078.47;;;11.02;100.00
22743;BME280;11538;48.884;8.696;2023-04-22T01:42:25;98069.69;;;11.05;100.00
22743;BME280;11538;48.884;8.696;2023-04-22T01:44:53;98078.94;;;11.04;100.00
22743;BME280;11538;48.884;8.696;2023-04-22T01:47:20;98076.53;;;11.02;100.00
22743;BME280;11538;48.884;8.696;2023-04-22T01:49:49;98076.88;;;11.01;100.00
22743;BME280;11538;48.884;8.696;2023-04-22T01:52:21;98077.97;;;11.00;100.00
22743;BME280;11538;48.884;8.696;2023-04-22T01:54:48;98071.91;;;10.94;100.00
22743;BME280;11538;48.884;8.696;2023-04-22T01:57:15;98076.69;;;10.97;100.00
22743;BME280;11538;48.884;8.696;2023-04-22T01:59:45;98074.47;;;10.99;100.00
22743;BME280;11538;48.884;8.696;2023-04-22T02:02:12;98074.28;;;11.04;100.00
22743;BME280;11538;48.884;8.696;2023-04-22T02:04:39;98078.31;;;11.07;100.00
22743;BME280;11538;48.884;8.696;2023-04-22T02:07:06;98076.06;;;11.09;100.00
22743;BME280;11538;48.884;8.696;2023-04-22T02:09:33;98081.19;;;11.02;100.00
22743;BME280;11538;48.884;8.696;2023-04-22T02:12:00;98083.09;;;10.92;100.00
22743;BME280;11538;48.884;8.696;2023-04-22T02:14:27;98067.63;;;10.84;100.00
22743;BME280;11538;48.884;8.696;2023-04-22T02:16:54;98070.63;;;10.82;100.00
22743;BME280;11538;48.884;8.696;2023-04-22T02:19:21;98066.81;;;10.83;100.00
22743;BME280;11538;48.884;8.696;2023-04-22T02:21:48;98074.47;;;10.81;100.00
22743;BME280;11538;48.884;8.696;2023-04-22T02:24:15;98079.88;;;10.81;100.00
22743;BME280;11538;48.884;8.696;2023-04-22T02:26:42;98075.91;;;10.79;100.00
22743;BME280;11538;48.884;8.696;2023-04-22T02:29:09;98087.53;;;10.79;100.00
22743;BME280;11538;48.884;8.696;2023-04-22T02:31:36;98088.66;;;10.78;100.00
22743;BME280;11538;48.884;8.696;2023-04-22T02:34:02;98090.91;;;10.76;100.00
22743;BME280;11538;48.884;8.696;2023-04-22T02:36:29;98090.91;;;10.76;100.00
22743;BME280;11538;48.884;8.696;2023-04-22T02:38:57;98074.13;;;10.74;100.00
22743;BME280;11538;48.884;8.696;2023-04-22T02:41:24;98069.34;;;10.71;100.00
22743;BME280;11538;48.884;8.696;2023-04-22T02:43:51;98068.09;;;10.68;100.00
22743;BME280;11538;48.884;8.696;2023-04-22T02:46:18;98067.59;;;10.66;100.00
22743;BME280;11538;48.884;8.696;2023-04-22T02:48:45;98068.41;;;10.76;100.00
22743;BME280;11538;48.884;8.696;2023-04-22T02:51:12;98063.00;;;10.76;100.00
22743;BME280;11538;48.884;8.696;2023-04-22T02:53:39;98069.53;;;10.75;100.00
22743;BME280;11538;48.884;8.696;2023-04-22T02:56:06;98070.66;;;10.74;100.00
22743;BME280;11538;48.884;8.696;2023-04-22T02:58:34;98072.41;;;10.70;100.00
22743;BME280;11538;48.884;8.696;2023-04-22T03:01:01;98081.66;;;10.68;100.00
22743;BME280;11538;48.884;8.696;2023-04-22T03:03:28;98077.16;;;10.64;100.00
22743;BME280;11538;48.884;8.696;2023-04-22T03:05:55;98082.44;;;10.60;100.00
22743;BME280;11538;48.884;8.696;2023-04-22T03:08:22;98078.72;;;10.56;100.00
22743;BME280;11538;48.884;8.696;2023-04-22T03:10:48;98084.63;;;10.58;100.00
22743;BME280;11538;48.884;8.696;2023-04-22T03:13:16;98086.09;;;10.56;100.00
22743;BME280;11538;48.884;8.696;2023-04-22T03:15:43;98087.19;;;10.55;100.00
22743;BME280;11538;48.884;8.696;2023-04-22T03:18:09;98084.31;;;10.51;100.00
22743;BME280;11538;48.884;8.696;2023-04-22T03:20:37;98087.66;;;10.48;100.00
22743;BME280;11538;48.884;8.696;2023-04-22T03:23:04;98093.72;;;10.45;100.00
22743;BME280;11538;48.884;8.696;2023-04-22T03:25:32;98098.84;;;10.46;100.00
22743;BME280;11538;48.884;8.696;2023-04-22T03:27:59;98092.28;;;10.47;100.00
22743;BME280;11538;48.884;8.696;2023-04-22T03:30:29;98090.84;;;10.50;100.00
22743;BME280;11538;48.884;8.696;2023-04-22T03:32:57;98095.78;;;10.48;100.00
22743;BME280;11538;48.884;8.696;2023-04-22T03:35:25;98088.13;;;10.41;100.00
22743;BME280;11538;48.884;8.696;2023-04-22T03:37:52;98083.94;;;10.35;100.00
22743;BME280;11538;48.884;8.696;2023-04-22T03:40:19;98095.09;;;10.33;100.00
22743;BME280;11538;48.884;8.696;2023-04-22T03:42:46;98094.31;;;10.33;100.00
22743;BME280;11538;48.884;8.696;2023-04-22T03:45:13;98082.63;;;10.23;100.00
22743;BME280;11538;48.884;8.696;2023-04-22T03:47:40;98082.63;;;10.23;100.00
22743;BME280;11538;48.884;8.696;2023-04-22T03:50:07;98085.66;;;10.22;100.00
22743;BME280;11538;48.884;8.696;2023-04-22T03:52:34;98079.75;;;10.20;100.00
22743;BME280;11538;48.884;8.696;2023-04-22T03:55:01;98085.78;;;10.17;100.00
22743;BME280;11538;48.884;8.696;2023-04-22T03:57:28;98081.97;;;10.18;100.00
22743;BME280;11538;48.884;8.696;2023-04-22T03:59:55;98079.75;;;10.20;100.00
22743;BME280;11538;48.884;8.696;2023-04-22T04:02:22;98085.66;;;10.22;100.00
22743;BME280;11538;48.884;8.696;2023-04-22T04:04:49;98083.44;;;10.24;100.00
22743;BME280;11538;48.884;8.696;2023-04-22T04:07:17;98091.53;;;10.15;100.00
22743;BME280;11538;48.884;8.696;2023-04-22T04:09:46;98083.84;;;10.08;100.00
22743;BME280;11538;48.884;8.696;2023-04-22T04:12:13;98087.06;;;10.10;100.00
22743;BME280;11538;48.884;8.696;2023-04-22T04:14:42;98078.13;;;10.10;100.00
22743;BME280;11538;48.884;8.696;2023-04-22T04:17:09;98081.78;;;10.05;100.00
22743;BME280;11538;48.884;8.696;2023-04-22T04:19:36;98074.59;;;10.01;100.00
22743;BME280;11538;48.884;8.696;2023-04-22T04:22:07;98065.19;;;9.98;100.00
22743;BME280;11538;48.884;8.696;2023-04-22T04:24:34;98070.16;;;10.05;100.00
22743;BME280;11538;48.884;8.696;2023-04-22T04:27:05;98079.22;;;10.00;100.00
22743;BME280;11538;48.884;8.696;2023-04-22T04:29:35;98083.66;;;9.96;100.00
22743;BME280;11538;48.884;8.696;2023-04-22T04:32:02;98079.34;;;9.95;100.00
22743;BME280;11538;48.884;8.696;2023-04-22T04:34:30;98073.00;;;10.00;100.00
22743;BME280;11538;48.884;8.696;2023-04-22T04:37:00;98080.81;;;10.01;100.00
22743;BME280;11538;48.884;8.696;2023-04-22T04:39:26;98068.50;;;9.95;100.00
22743;BME280;11538;48.884;8.696;2023-04-22T04:41:54;98066.56;;;9.87;100.00
22743;BME280;11538;48.884;8.696;2023-04-22T04:44:24;98075.31;;;9.84;100.00
22743;BME280;11538;48.884;8.696;2023-04-22T04:46:52;98074.84;;;9.82;100.00
22743;BME280;11538;48.884;8.696;2023-04-22T04:49:20;98078.03;;;9.84;100.00
22743;BME280;11538;48.884;8.696;2023-04-22T04:51:47;98073.72;;;9.83;100.00
22743;BME280;11538;48.884;8.696;2023-04-22T04:54:14;98070.03;;;9.78;100.00
22743;BME280;11538;48.884;8.696;2023-04-22T04:56:41;98071.94;;;9.78;100.00
22743;BME280;11538;48.884;8.696;2023-04-22T04:59:08;98073.66;;;9.74;100.00
22743;BME280;11538;48.884;8.696;2023-04-22T05:01:35;98067.47;;;9.73;100.00
22743;BME280;11538;48.884;8.696;2023-04-22T05:04:02;98074.66;;;9.78;100.00
22743;BME280;11538;48.884;8.696;2023-04-22T05:06:30;98071.78;;;9.74;100.00
22743;BME280;11538;48.884;8.696;2023-04-22T05:08:58;98075.72;;;9.68;100.00
22743;BME280;11538;48.884;8.696;2023-04-22T05:11:25;98075.72;;;9.68;100.00
22743;BME280;11538;48.884;8.696;2023-04-22T05:13:52;98080.78;;;9.61;100.00
22743;BME280;11538;48.884;8.696;2023-04-22T05:16:19;98081.63;;;9.70;100.00
22743;BME280;11538;48.884;8.696;2023-04-22T05:18:46;98091.22;;;9.76;100.00
22743;BME280;11538;48.884;8.696;2023-04-22T05:21:13;98084.69;;;9.77;100.00
22743;BME280;11538;48.884;8.696;2023-04-22T05:23:40;98089.00;;;9.78;100.00
22743;BME280;11538;48.884;8.696;2023-04-22T05:26:06;98085.81;;;9.76;100.00
22743;BME280;11538;48.884;8.696;2023-04-22T05:28:33;98092.47;;;9.70;100.00
22743;BME280;11538;48.884;8.696;2023-04-22T05:31:04;98091.16;;;9.68;100.00
22743;BME280;11538;48.884;8.696;2023-04-22T05:33:31;98096.56;;;9.68;100.00
22743;BME280;11538;48.884;8.696;2023-04-22T05:36:00;98093.09;;;9.67;100.00
22743;BME280;11538;48.884;8.696;2023-04-22T05:38:27;98099.28;;;9.68;100.00
22743;BME280;11538;48.884;8.696;2023-04-22T05:40:54;98100.88;;;9.69;100.00
22743;BME280;11538;48.884;8.696;2023-04-22T05:43:21;98095.66;;;9.72;100.00
22743;BME280;11538;48.884;8.696;2023-04-22T05:45:48;98092.19;;;9.80;100.00
22743;BME280;11538;48.884;8.696;2023-04-22T05:48:14;98092.81;;;9.77;100.00
22743;BME280;11538;48.884;8.696;2023-04-22T05:50:41;98095.03;;;9.75;100.00
22743;BME280;11538;48.884;8.696;2023-04-22T05:53:08;98095.03;;;9.75;100.00
22743;BME280;11538;48.884;8.696;2023-04-22T05:55:35;98105.75;;;9.80;100.00
22743;BME280;11538;48.884;8.696;2023-04-22T05:58:02;98101.47;;;9.88;100.00
22743;BME280;11538;48.884;8.696;2023-04-22T06:00:29;98107.25;;;9.95;100.00
22743;BME280;11538;48.884;8.696;2023-04-22T06:02:56;98115.53;;;9.99;100.00
22743;BME280;11538;48.884;8.696;2023-04-22T06:05:23;98109.50;;;10.02;100.00
22743;BME280;11538;48.884;8.696;2023-04-22T06:07:50;98115.88;;;10.06;100.00
22743;BME280;11538;48.884;8.696;2023-04-22T06:10:17;98121.16;;;10.03;100.00
22743;BME280;11538;48.884;8.696;2023-04-22T06:12:44;98123.22;;;10.06;100.00
22743;BME280;11538;48.884;8.696;2023-04-22T06:15:11;98125.94;;;10.06;100.00
22743;BME280;11538;48.884;8.696;2023-04-22T06:17:38;98115.41;;;10.04;100.00
22743;BME280;11538;48.884;8.696;2023-04-22T06:20:06;98130.91;;;10.13;100.00
22743;BME280;11538;48.884;8.696;2023-04-22T06:22:33;98122.81;;;10.21;100.00
22743;BME280;11538;48.884;8.696;2023-04-22T06:24:59;98118.84;;;10.28;100.00
22743;BME280;11538;48.884;8.696;2023-04-22T06:27:26;98121.22;;;10.29;100.00
22743;BME280;11538;48.884;8.696;2023-04-22T06:29:53;98123.78;;;10.34;100.00
22743;BME280;11538;48.884;8.696;2023-04-22T06:32:20;98119.97;;;10.35;100.00
22743;BME280;11538;48.884;8.696;2023-04-22T06:34:47;98122.88;;;10.39;100.00
22743;BME280;11538;48.884;8.696;2023-04-22T06:37:17;98126.88;;;10.42;100.00
22743;BME280;11538;48.884;8.696;2023-04-22T06:39:44;98122.41;;;10.46;100.00
22743;BME280;11538;48.884;8.696;2023-04-22T06:42:10;98124.84;;;10.56;100.00
22743;BME280;11538;48.884;8.696;2023-04-22T06:44:37;98120.72;;;10.67;100.00
22743;BME280;11538;48.884;8.696;2023-04-22T06:47:04;98110.38;;;10.78;100.00
22743;BME280;11538;48.884;8.696;2023-04-22T06:49:31;98115.47;;;10.89;100.00
22743;BME280;11538;48.884;8.696;2023-04-22T06:51:58;98113.91;;;10.96;100.00
22743;BME280;11538;48.884;8.696;2023-04-22T06:54:25;98111.81;;;11.02;100.00
22743;BME280;11538;48.884;8.696;2023-04-22T06:56:52;98105.09;;;11.08;100.00
22743;BME280;11538;48.884;8.696;2023-04-22T06:59:18;98103.03;;;11.14;100.00
22743;BME280;11538;48.884;8.696;2023-04-22T07:01:45;98105.59;;;11.19;100.00
22743;BME280;11538;48.884;8.696;2023-04-22T07:04:12;98106.38;;;11.20;100.00
22743;BME280;11538;48.884;8.696;2023-04-22T07:06:39;98099.53;;;11.22;100.00
22743;BME280;11538;48.884;8.696;2023-04-22T07:09:06;98103.19;;;11.26;100.00
22743;BME280;11538;48.884;8.696;2023-04-22T07:11:33;98099.53;;;11.31;100.00
22743;BME280;11538;48.884;8.696;2023-04-22T07:14:00;98107.16;;;11.38;100.00
22743;BME280;11538;48.884;8.696;2023-04-22T07:16:30;98110.53;;;11.44;100.00
22743;BME280;11538;48.884;8.696;2023-04-22T07:18:57;98113.06;;;11.49;100.00
22743;BME280;11538;48.884;8.696;2023-04-22T07:21:25;98114.97;;;11.57;100.00
22743;BME280;11538;48.884;8.696;2023-04-22T07:23:51;98125.81;;;11.66;100.00
22743;BME280;11538;48.884;8.696;2023-04-22T07:26:18;98114.47;;;11.73;100.00
22743;BME280;11538;48.884;8.696;2023-04-22T07:28:45;98111.69;;;11.81;100.00
22743;BME280;11538;48.884;8.696;2023-04-22T07:31:15;98110.72;;;11.95;100.00
22743;BME280;11538;48.884;8.696;2023-04-22T07:33:42;98109.75;;;12.08;100.00
22743;BME280;11538;48.884;8.696;2023-04-22T07:36:12;98112.88;;;12.19;100.00
22743;BME280;11538;48.884;8.696;2023-04-22T07:38:38;98110.16;;;12.19;100.00
22743;BME280;11538;48.884;8.696;2023-04-22T07:41:08;98113.69;;;12.20;100.00
22743;BME280;11538;48.884;8.696;2023-04-22T07:43:35;98117.00;;;12.25;100.00
22743;BME280;11538;48.884;8.696;2023-04-22T07:46:02;98118.41;;;12.32;100.00
22743;BME280;11538;48.884;8.696;2023-04-22T07:48:29;98119.03;;;12.37;100.00
22743;BME280;11538;48.884;8.696;2023-04-22T07:50:56;98116.72;;;12.48;100.00
22743;BME280;11538;48.884;8.696;2023-04-22T07:53:23;98121.47;;;12.60;100.00
22743;BME280;11538;48.884;8.696;2023-04-22T07:55:50;98120.44;;;12.73;100.00
22743;BME280;11538;48.884;8.696;2023-04-22T07:58:17;98114.19;;;12.94;100.00
22743;BME280;11538;48.884;8.696;2023-04-22T08:00:43;98113.31;;;13.24;100.00
22743;BME280;11538;48.884;8.696;2023-04-22T08:03:10;98115.59;;;13.43;100.00
22743;BME280;11538;48.884;8.696;2023-04-22T08:05:38;98109.19;;;13.72;100.00
22743;BME280;11538;48.884;8.696;2023-04-22T08:08:06;98115.25;;;13.91;100.00
22743;BME280;11538;48.884;8.696;2023-04-22T08:10:33;98108.47;;;14.22;100.00
22743;BME280;11538;48.884;8.696;2023-04-22T08:13:00;98110.97;;;14.39;100.00
22743;BME280;11538;48.884;8.696;2023-04-22T08:15:27;98109.72;;;14.61;100.00
22743;BME280;11538;48.884;8.696;2023-04-22T08:17:54;98105.72;;;14.84;100.00
22743;BME280;11538;48.884;8.696;2023-04-22T08:20:21;98104.66;;;15.01;100.00
22743;BME280;11538;48.884;8.696;2023-04-22T08:22:48;98108.69;;;15.19;100.00
22743;BME280;11538;48.884;8.696;2023-04-22T08:25:17;98102.06;;;15.33;100.00
22743;BME280;11538;48.884;8.696;2023-04-22T08:27:43;98099.53;;;15.56;100.00
22743;BME280;11538;48.884;8.696;2023-04-22T08:30:11;98091.00;;;15.74;98.07
22743;BME280;11538;48.884;8.696;2023-04-22T08:32:38;98087.19;;;15.91;97.25
22743;BME280;11538;48.884;8.696;2023-04-22T08:35:05;98088.69;;;16.20;96.91
22743;BME280;11538;48.884;8.696;2023-04-22T08:37:33;98088.09;;;16.47;95.30
22743;BME280;11538;48.884;8.696;2023-04-22T08:40:01;98085.94;;;16.72;93.71
22743;BME280;11538;48.884;8.696;2023-04-22T08:42:29;98081.34;;;16.96;93.54
22743;BME280;11538;48.884;8.696;2023-04-22T08:44:57;98092.31;;;17.16;91.57
22743;BME280;11538;48.884;8.696;2023-04-22T08:47:27;98087.63;;;17.36;92.07
22743;BME280;11538;48.884;8.696;2023-04-22T08:49:54;98086.31;;;17.49;91.62
22743;BME280;11538;48.884;8.696;2023-04-22T08:52:22;98081.91;;;17.64;91.54
22743;BME280;11538;48.884;8.696;2023-04-22T08:54:49;98081.72;;;17.77;92.00
22743;BME280;11538;48.884;8.696;2023-04-22T08:57:17;98078.97;;;17.77;91.83
22743;BME280;11538;48.884;8.696;2023-04-22T08:59:49;98076.47;;;17.68;93.14
22743;BME280;11538;48.884;8.696;2023-04-22T09:02:19;98067.94;;;17.50;94.61
22743;BME280;11538;48.884;8.696;2023-04-22T09:04:49;98065.13;;;17.46;95.03
22743;BME280;11538;48.884;8.696;2023-04-22T09:07:22;98061.34;;;17.54;95.60
22743;BME280;11538;48.884;8.696;2023-04-22T09:09:53;98066.13;;;17.81;95.11
22743;BME280;11538;48.884;8.696;2023-04-22T09:12:21;98065.16;;;17.93;89.29
22743;BME280;11538;48.884;8.696;2023-04-22T09:14:48;98076.13;;;18.16;89.75
22743;BME280;11538;48.884;8.696;2023-04-22T09:17:17;98068.31;;;18.45;91.51
22743;BME280;11538;48.884;8.696;2023-04-22T09:19:57;98061.91;;;18.64;88.92
22743;BME280;11538;48.884;8.696;2023-04-22T09:22:27;98053.09;;;18.78;91.42
22743;BME280;11538;48.884;8.696;2023-04-22T09:24:55;98060.06;;;19.03;88.29
22743;BME280;11538;48.884;8.696;2023-04-22T09:27:24;98049.72;;;19.23;88.30
22743;BME280;11538;48.884;8.696;2023-04-22T09:29:51;98043.47;;;19.26;88.45
22743;BME280;11538;48.884;8.696;2023-04-22T09:32:19;98047.03;;;19.30;87.74
22743;BME280;11538;48.884;8.696;2023-04-22T09:34:50;98050.19;;;19.28;88.42
22743;BME280;11538;48.884;8.696;2023-04-22T09:37:24;98045.31;;;19.18;87.38
22743;BME280;11538;48.884;8.696;2023-04-22T09:40:01;98047.03;;;19.30;87.05
22743;BME280;11538;48.884;8.696;2023-04-22T09:42:29;98043.94;;;19.73;86.90
22743;BME280;11538;48.884;8.696;2023-04-22T09:44:59;98043.41;;;20.01;84.93
22743;BME280;11538;48.884;8.696;2023-04-22T09:47:34;98044.34;;;20.20;83.59
22743;BME280;11538;48.884;8.696;2023-04-22T09:50:03;98045.19;;;20.31;82.05
22743;BME280;11538;48.884;8.696;2023-04-22T09:52:32;98046.88;;;20.47;77.74
22743;BME280;11538;48.884;8.696;2023-04-22T09:55:00;98035.84;;;20.51;78.97
22743;BME280;11538;48.884;8.696;2023-04-22T09:57:26;98047.38;;;20.71;78.83
22743;BME280;11538;48.884;8.696;2023-04-22T09:59:57;98032.53;;;20.86;78.84
22743;BME280;11538;48.884;8.696;2023-04-22T10:02:28;98040.78;;;20.83;79.48
22743;BME280;11538;48.884;8.696;2023-04-22T10:04:56;98036.94;;;21.13;79.00
22743;BME280;11538;48.884;8.696;2023-04-22T10:07:25;98039.78;;;21.38;78.50
22743;BME280;11538;48.884;8.696;2023-04-22T10:09:57;98039.00;;;21.59;73.25
22743;BME280;11538;48.884;8.696;2023-04-22T10:12:27;98043.03;;;21.87;75.21
22743;BME280;11538;48.884;8.696;2023-04-22T10:15:04;98038.69;;;22.08;75.59
22743;BME280;11538;48.884;8.696;2023-04-22T10:17:36;98039.44;;;22.27;73.67
22743;BME280;11538;48.884;8.696;2023-04-22T10:20:10;98037.03;;;22.40;68.54
22743;BME280;11538;48.884;8.696;2023-04-22T10:22:42;98041.00;;;22.60;67.36
22743;BME280;11538;48.884;8.696;2023-04-22T10:25:24;98033.41;;;22.86;68.49
22743;BME280;11538;48.884;8.696;2023-04-22T10:28:03;98028.16;;;23.06;63.60
22743;BME280;11538;48.884;8.696;2023-04-22T10:30:35;98034.03;;;23.19;62.60
22743;BME280;11538;48.884;8.696;2023-04-22T10:36:09;98017.72;;;23.47;64.17
22743;BME280;11538;48.884;8.696;2023-04-22T10:41:32;98032.03;;;23.87;61.99
22743;BME280;11538;48.884;8.696;2023-04-22T10:44:05;98029.69;;;23.82;59.99
22743;BME280;11538;48.884;8.696;2023-04-22T10:51:59;98015.53;;;24.22;45.62
22743;BME280;11538;48.884;8.696;2023-04-22T10:57:06;98024.00;;;23.51;58.93
22743;BME280;11538;48.884;8.696;2023-04-22T10:59:52;98017.16;;;22.96;60.41
22743;BME280;11538;48.884;8.696;2023-04-22T11:02:21;98022.00;;;22.77;60.02
22743;BME280;11538;48.884;8.696;2023-04-22T11:04:50;98033.13;;;22.55;60.13
22743;BME280;11538;48.884;8.696;2023-04-22T11:17:33;98021.31;;;22.15;61.59
22743;BME280;11538;48.884;8.696;2023-04-22T11:20:02;98028.03;;;21.81;58.12
22743;BME280;11538;48.884;8.696;2023-04-22T11:22:41;98029.94;;;21.55;54.95
22743;BME280;11538;48.884;8.696;2023-04-22T11:25:09;98037.44;;;21.40;61.50
22743;BME280;11538;48.884;8.696;2023-04-22T11:27:39;98035.81;;;21.25;60.03
22743;BME280;11538;48.884;8.696;2023-04-22T11:30:15;98031.47;;;21.20;56.90
22743;BME280;11538;48.884;8.696;2023-04-22T11:32:52;98032.63;;;21.19;60.48
22743;BME280;11538;48.884;8.696;2023-04-22T11:35:23;98022.84;;;21.54;58.35
22743;BME280;11538;48.884;8.696;2023-04-22T11:38:04;98024.81;;;21.43;58.71
22743;BME280;11538;48.884;8.696;2023-04-22T11:40:40;98024.03;;;21.35;59.84
22743;BME280;11538;48.884;8.696;2023-04-22T11:43:11;98022.84;;;21.40;59.85
22743;BME280;11538;48.884;8.696;2023-04-22T11:45:39;98018.16;;;21.66;59.27
22743;BME280;11538;48.884;8.696;2023-04-22T11:48:09;98016.56;;;22.19;55.63
22743;BME280;11538;48.884;8.696;2023-04-22T11:50:39;98025.63;;;22.45;54.49
22743;BME280;11538;48.884;8.696;2023-04-22T11:53:19;98025.22;;;22.35;51.99
22743;BME280;11538;48.884;8.696;2023-04-22T11:55:50;98024.47;;;22.10;55.05
22743;BME280;11538;48.884;8.696;2023-04-22T11:58:46;98043.00;;;22.20;50.47
22743;BME280;11538;48.884;8.696;2023-04-22T12:01:13;98034.75;;;21.91;51.82
22743;BME280;11538;48.884;8.696;2023-04-22T12:03:40;98038.22;;;21.55;56.58
22743;BME280;11538;48.884;8.696;2023-04-22T12:06:10;98029.13;;;21.33;57.04
22743;BME280;11538;48.884;8.696;2023-04-22T12:08:38;98038.91;;;21.12;57.98
22743;BME280;11538;48.884;8.696;2023-04-22T12:11:10;98048.72;;;20.99;57.64
22743;BME280;11538;48.884;8.696;2023-04-22T12:16:10;98049.03;;;20.79;55.14
22743;BME280;11538;48.884;8.696;2023-04-22T12:18:51;98044.25;;;20.72;49.44
22743;BME280;11538;48.884;8.696;2023-04-22T12:21:22;98057.59;;;20.67;53.54
22743;BME280;11538;48.884;8.696;2023-04-22T12:23:52;98048.50;;;20.59;52.11
22743;BME280;11538;48.884;8.696;2023-04-22T12:26:22;98054.81;;;20.59;52.82
22743;BME280;11538;48.884;8.696;2023-04-22T12:28:56;98041.84;;;20.64;48.34
22743;BME280;11538;48.884;8.696;2023-04-22T12:31:25;98041.94;;;20.78;53.34
22743;BME280;11538;48.884;8.696;2023-04-22T12:33:53;98043.13;;;20.84;48.02
22743;BME280;11538;48.884;8.696;2023-04-22T12:36:22;98043.94;;;20.88;44.63
22743;BME280;11538;48.884;8.696;2023-04-22T12:38:49;98048.72;;;20.95;46.67
22743;BME280;11538;48.884;8.696;2023-04-22T12:41:17;98055.81;;;20.96;53.16
22743;BME280;11538;48.884;8.696;2023-04-22T12:43:43;98051.47;;;20.99;49.13
22743;BME280;11538;48.884;8.696;2023-04-22T12:46:10;98044.00;;;20.99;49.48
22743;BME280;11538;48.884;8.696;2023-04-22T12:48:37;98031.34;;;20.87;52.70
22743;BME280;11538;48.884;8.696;2023-04-22T12:51:05;98043.47;;;20.75;47.23
22743;BME280;11538;48.884;8.696;2023-04-22T12:53:33;98037.53;;;20.70;49.55
22743;BME280;11538;48.884;8.696;2023-04-22T12:56:00;98034.78;;;20.66;50.24
22743;BME280;11538;48.884;8.696;2023-04-22T12:58:31;98038.28;;;20.59;50.55
22743;BME280;11538;48.884;8.696;2023-04-22T13:00:58;98035.88;;;20.54;49.34
22743;BME280;11538;48.884;8.696;2023-04-22T13:03:25;98038.59;;;20.51;48.28
22743;BME280;11538;48.884;8.696;2023-04-22T13:05:53;98034.69;;;20.52;50.33
22743;BME280;11538;48.884;8.696;2023-04-22T13:08:20;98031.22;;;20.66;49.37
22743;BME280;11538;48.884;8.696;2023-04-22T13:10:48;98032.25;;;21.21;47.77
22743;BME280;11538;48.884;8.696;2023-04-22T13:13:16;98036.72;;;22.01;42.44
22743;BME280;11538;48.884;8.696;2023-04-22T13:15:48;98041.34;;;22.77;40.82
22743;BME280;11538;48.884;8.696;2023-04-22T13:18:21;98039.69;;;22.98;40.18
22743;BME280;11538;48.884;8.696;2023-04-22T13:20:48;98039.66;;;23.72;37.85
22743;BME280;11538;48.884;8.696;2023-04-22T13:23:15;98027.22;;;24.41;35.88
22743;BME280;11538;48.884;8.696;2023-04-22T13:25:43;98021.50;;;25.24;35.35
22743;BME280;11538;48.884;8.696;2023-04-22T13:28:10;98023.22;;;25.69;33.84